201620Z 17007KT CAVOK 12/02 Q1025 RWY 14 CLEAR AND DRY 51-100 PCT BA GOOD=

201430Z 2015/2024 18008KT CAVOK=

Aktuell METAR/TAF ESNU/UME

Källa: Luftfartsverket (aro.lfv.se)